Archival Weather

Dallas-Fort Worth Intl

Dallas-Fort Worth, Texas (KDFW)

Report from: Thursday, September 21, 2023 12:53 AM CDT
Current time: Friday, February 23, 2024 3:08 PM CST

Current weather – Weather history – Daily summaries
Weather forecast

Temperature27.8°C (82.0°F)
Heat index29.1°C (84.3°F)
Dew point18.3°C (64.9°F)
Winds 11 kts (5.7 m/s, 12.7 mph) South-Southeast (160°)
Visibility10 mi. (16.1 km)
Clouds Sky clear
Altimeter29.88 in.Hg (1012 mB)
Relative humidity56 %
Density altitude1,846 ft. (563 m)
Sea-level pressure101.1 kPa (1011 mB, 29.85 in.Hg)
Max temp last 6 hours33.3°C (91.9°F)
Min temp last 6 hours27.8°C (82.0°F)
Max temp last 24 hours34.4°C (93.9°F)
Min temp last 24 hours21.7°C (71.1°F)
Remarks Automated weather observing station with precipitation discriminator
Pressure rising more slowly
Flight conditions Visual Meteorological Conditions
Raw dataKDFW 210553Z 16011KT 10SM CLR 28/18 A2988 RMK AO2 SLP107 T02780183 10333 20278 403440217 51007
An error has occurred. This application may no longer respond until reloaded. Reload 🗙